Time;durP1;ratioP1;P1;durP2;ratioP2;P2;SDS_P1;SDS_P2;PMS_P1;PMS_P2;Temp;Humidity;BMP_temperature;BMP_pressure;BME280_temperature;BME280_humidity;BME280_pressure;Samples;Min_cycle;Max_cycle;Signal;HPM_P1;HPM_P2
2022/03/14 00:02:05;;;;;;;11.50;10.07;;;;;;;;;;5094743;28;20225;-78
2022/03/14 00:18:32;;;;;;;10.90;9.30;;;;;;;;;;5092498;28;20207;-77
2022/03/14 00:21:01;;;;;;;10.43;9.33;;;;;;;;;;5095855;28;20544;-77
2022/03/14 00:23:30;;;;;;;11.67;9.50;;;;;;;;;;5095319;28;20251;-77
2022/03/14 00:25:58;;;;;;;11.50;9.20;;;;;;;;;;5095282;28;20216;-77
2022/03/14 00:28:27;;;;;;;11.50;9.47;;;;;;;;;;5095361;28;20544;-78
2022/03/14 00:30:55;;;;;;;12.10;10.40;;;;;;;;;;5095440;28;20212;-77
2022/03/14 00:33:24;;;;;;;10.80;9.23;;;;;;;;;;5095292;28;20202;-77
2022/03/14 00:35:55;;;;;;;11.20;9.30;;;;;;;;;;5095214;28;20217;-77
2022/03/14 00:38:25;;;;;;;10.87;9.73;;;;;;;;;;5094932;28;20632;-77
2022/03/14 00:40:53;;;;;;;11.17;9.40;;;;;;;;;;5089641;28;20241;-77
2022/03/14 00:43:22;;;;;;;9.63;8.50;;;;;;;;;;5075279;28;20225;-77
2022/03/14 00:45:50;;;;;;;10.90;9.03;;;;;;;;;;5087477;28;20717;-78
2022/03/14 00:48:19;;;;;;;10.83;9.07;;;;;;;;;;5095169;28;20614;-77
2022/03/14 00:50:47;;;;;;;10.83;9.50;;;;;;;;;;5092308;28;20208;-77
2022/03/14 00:53:17;;;;;;;10.57;9.20;;;;;;;;;;5094777;28;20262;-77
2022/03/14 00:55:45;;;;;;;11.03;9.83;;;;;;;;;;5094668;28;20213;-78
2022/03/14 00:58:14;;;;;;;10.70;9.50;;;;;;;;;;5083983;28;20253;-77
2022/03/14 01:00:43;;;;;;;12.00;9.50;;;;;;;;;;5085755;28;20208;-77
2022/03/14 01:03:11;;;;;;;11.13;9.60;;;;;;;;;;5094537;28;20255;-77
2022/03/14 01:05:40;;;;;;;10.40;9.07;;;;;;;;;;5094956;28;20282;-77
2022/03/14 01:08:09;;;;;;;12.20;9.63;;;;;;;;;;5093982;28;20275;-77
2022/03/14 01:10:38;;;;;;;11.83;9.90;;;;;;;;;;5094089;28;20261;-77
2022/03/14 01:13:10;;;;;;;11.23;10.03;;;;;;;;;;5094522;28;20206;-77
2022/03/14 01:15:39;;;;;;;12.20;10.90;;;;;;;;;;5094769;28;20576;-77
2022/03/14 01:18:07;;;;;;;11.30;10.10;;;;;;;;;;5094263;28;20238;-77
2022/03/14 01:20:36;;;;;;;12.40;11.20;;;;;;;;;;5084423;28;20284;-77
2022/03/14 01:23:04;;;;;;;11.33;10.23;;;;;;;;;;5084630;28;20621;-77
2022/03/14 01:25:32;;;;;;;11.77;9.87;;;;;;;;;;5082371;28;20210;-77
2022/03/14 01:28:02;;;;;;;12.57;10.83;;;;;;;;;;5083972;28;20230;-77
2022/03/14 01:30:31;;;;;;;13.67;11.30;;;;;;;;;;5094247;28;20211;-78
2022/03/14 01:33:00;;;;;;;11.77;9.87;;;;;;;;;;5093894;28;20203;-77
2022/03/14 01:35:28;;;;;;;11.13;9.90;;;;;;;;;;5094273;28;20208;-77
2022/03/14 01:37:57;;;;;;;10.50;9.40;;;;;;;;;;5093830;28;20577;-77
2022/03/14 01:40:26;;;;;;;11.27;9.53;;;;;;;;;;5093938;28;20220;-77
2022/03/14 01:42:54;;;;;;;11.27;9.73;;;;;;;;;;5086560;28;20256;-77
2022/03/14 01:45:24;;;;;;;13.03;9.17;;;;;;;;;;5094105;28;20203;-77
2022/03/14 01:47:53;;;;;;;12.23;10.73;;;;;;;;;;5084019;28;20761;-77
2022/03/14 01:50:21;;;;;;;13.00;10.07;;;;;;;;;;5086719;28;20637;-77
2022/03/14 01:52:50;;;;;;;13.33;9.70;;;;;;;;;;5091048;28;20610;-77
2022/03/14 01:55:18;;;;;;;13.53;10.20;;;;;;;;;;5094098;28;20211;-77
2022/03/14 01:57:47;;;;;;;14.70;10.90;;;;;;;;;;5093000;28;20222;-77
2022/03/14 02:00:15;;;;;;;11.10;9.23;;;;;;;;;;5087744;28;20211;-77
2022/03/14 02:02:47;;;;;;;12.10;10.10;;;;;;;;;;5084273;28;20231;-77
2022/03/14 02:05:16;;;;;;;11.47;9.47;;;;;;;;;;5093434;28;20698;-77
2022/03/14 02:07:45;;;;;;;13.20;10.27;;;;;;;;;;5081560;28;20290;-77
2022/03/14 02:10:13;;;;;;;12.17;10.03;;;;;;;;;;5075703;28;20666;-78
2022/03/14 02:12:44;;;;;;;10.17;9.10;;;;;;;;;;5093496;28;20618;-77
2022/03/14 02:15:12;;;;;;;11.67;9.50;;;;;;;;;;5092498;28;20190;-77
2022/03/14 02:17:41;;;;;;;12.40;10.97;;;;;;;;;;5088397;28;20246;-77
2022/03/14 02:20:11;;;;;;;11.23;10.03;;;;;;;;;;5092228;28;20219;-77
2022/03/14 02:22:40;;;;;;;11.43;9.80;;;;;;;;;;5089981;28;20194;-77
2022/03/14 02:25:11;;;;;;;12.30;10.03;;;;;;;;;;5087894;28;20262;-77
2022/03/14 02:27:40;;;;;;;11.87;9.83;;;;;;;;;;5092616;28;20222;-77
2022/03/14 02:30:08;;;;;;;11.17;9.60;;;;;;;;;;5092828;28;20214;-77
2022/03/14 02:32:41;;;;;;;10.73;8.87;;;;;;;;;;5089928;28;20208;-77
2022/03/14 02:35:11;;;;;;;12.17;9.43;;;;;;;;;;5093596;28;20183;-77
2022/03/14 02:37:40;;;;;;;11.30;9.87;;;;;;;;;;5082896;28;20224;-77
2022/03/14 02:40:09;;;;;;;11.77;9.37;;;;;;;;;;5093570;28;20214;-77
2022/03/14 02:42:37;;;;;;;10.23;9.00;;;;;;;;;;5090284;28;20256;-77
2022/03/14 02:45:09;;;;;;;11.87;10.10;;;;;;;;;;5093017;28;20216;-77
2022/03/14 02:47:38;;;;;;;11.10;9.40;;;;;;;;;;5093252;28;20230;-78
2022/03/14 02:50:07;;;;;;;12.87;8.83;;;;;;;;;;5093030;28;20203;-77
2022/03/14 02:52:37;;;;;;;10.73;8.77;;;;;;;;;;5093139;28;20557;-77
2022/03/14 02:55:06;;;;;;;10.43;8.80;;;;;;;;;;5093024;28;20207;-77
2022/03/14 02:57:34;;;;;;;11.33;9.50;;;;;;;;;;5092743;28;20276;-77
2022/03/14 03:00:05;;;;;;;11.40;9.87;;;;;;;;;;5092826;28;20682;-77
2022/03/14 03:02:37;;;;;;;12.17;9.40;;;;;;;;;;5073309;28;20645;-77
2022/03/14 03:05:06;;;;;;;12.87;9.23;;;;;;;;;;5078513;28;20243;-78
2022/03/14 03:07:36;;;;;;;10.63;9.30;;;;;;;;;;5083894;28;20225;-77
2022/03/14 03:10:07;;;;;;;15.97;9.27;;;;;;;;;;5076026;28;20214;-77
2022/03/14 03:12:37;;;;;;;10.93;9.33;;;;;;;;;;5072991;28;20205;-77
2022/03/14 03:15:06;;;;;;;10.53;9.10;;;;;;;;;;5091621;28;21885;-77
2022/03/14 03:17:35;;;;;;;10.70;9.20;;;;;;;;;;5087580;28;20231;-77
2022/03/14 03:20:04;;;;;;;11.17;9.47;;;;;;;;;;5093235;28;20203;-78
2022/03/14 03:22:32;;;;;;;12.33;9.57;;;;;;;;;;5093182;28;20208;-78
2022/03/14 03:25:00;;;;;;;11.57;9.87;;;;;;;;;;5091969;28;20285;-77
2022/03/14 03:27:31;;;;;;;11.13;9.43;;;;;;;;;;5092771;28;20278;-77
2022/03/14 03:30:00;;;;;;;10.43;9.40;;;;;;;;;;5092673;28;20207;-78
2022/03/14 03:32:29;;;;;;;11.03;9.83;;;;;;;;;;5092745;28;20211;-77
2022/03/14 03:34:57;;;;;;;10.83;9.17;;;;;;;;;;5074509;28;20846;-77
2022/03/14 03:37:25;;;;;;;12.03;9.70;;;;;;;;;;5084620;28;20228;-77
2022/03/14 03:39:54;;;;;;;12.57;10.37;;;;;;;;;;5095633;28;20816;-77
2022/03/14 03:42:22;;;;;;;13.13;10.00;;;;;;;;;;5096640;28;20216;-77
2022/03/14 03:44:52;;;;;;;11.73;9.60;;;;;;;;;;5095075;28;20212;-77
2022/03/14 03:47:21;;;;;;;11.63;9.77;;;;;;;;;;5080163;28;20220;-77
2022/03/14 03:49:50;;;;;;;13.43;9.40;;;;;;;;;;5095762;28;20204;-77
2022/03/14 03:52:18;;;;;;;12.73;10.10;;;;;;;;;;5096172;28;20210;-77
2022/03/14 03:54:47;;;;;;;11.70;9.83;;;;;;;;;;5096075;28;20204;-77
2022/03/14 03:57:15;;;;;;;11.47;9.80;;;;;;;;;;5095661;28;20631;-77
2022/03/14 03:59:44;;;;;;;11.43;9.63;;;;;;;;;;5096029;28;20199;-78
2022/03/14 04:02:19;;;;;;;10.47;9.30;;;;;;;;;;5095507;28;20210;-77
2022/03/14 04:04:48;;;;;;;13.57;10.07;;;;;;;;;;5095747;28;20770;-77
2022/03/14 04:07:19;;;;;;;10.63;9.53;;;;;;;;;;5095319;28;20236;-77
2022/03/14 04:09:49;;;;;;;11.67;9.93;;;;;;;;;;5096275;28;20266;-77
2022/03/14 04:12:18;;;;;;;13.13;10.30;;;;;;;;;;5095862;28;20209;-77
2022/03/14 04:14:47;;;;;;;10.43;9.33;;;;;;;;;;5094620;28;20197;-77
2022/03/14 04:17:16;;;;;;;13.57;10.63;;;;;;;;;;5082000;28;20232;-77
2022/03/14 04:19:45;;;;;;;11.37;9.50;;;;;;;;;;5095331;28;20208;-77
2022/03/14 04:22:14;;;;;;;11.47;10.17;;;;;;;;;;5095110;28;20258;-77
2022/03/14 04:24:43;;;;;;;13.40;9.70;;;;;;;;;;5096141;28;20228;-77
2022/03/14 04:27:11;;;;;;;11.50;9.93;;;;;;;;;;5081224;28;20228;-77
2022/03/14 04:29:39;;;;;;;15.67;10.57;;;;;;;;;;5095725;28;20204;-77
2022/03/14 04:32:08;;;;;;;12.43;10.93;;;;;;;;;;5076943;28;20216;-77
2022/03/14 04:34:38;;;;;;;11.67;10.47;;;;;;;;;;5089324;28;20202;-77
2022/03/14 04:37:07;;;;;;;12.30;10.70;;;;;;;;;;5094974;28;20231;-77
2022/03/14 04:39:35;;;;;;;12.40;10.87;;;;;;;;;;5085146;28;20256;-77
2022/03/14 04:42:04;;;;;;;12.27;10.97;;;;;;;;;;5095247;28;20205;-77
2022/03/14 04:44:34;;;;;;;12.10;10.77;;;;;;;;;;5095188;28;20206;-77
2022/03/14 04:47:02;;;;;;;15.20;12.07;;;;;;;;;;5094465;28;20224;-77
2022/03/14 04:49:31;;;;;;;13.50;11.27;;;;;;;;;;5087014;28;20213;-77
2022/03/14 04:52:01;;;;;;;13.80;11.60;;;;;;;;;;5085006;28;20609;-77
2022/03/14 04:54:29;;;;;;;13.50;11.97;;;;;;;;;;5078257;28;20195;-77
2022/03/14 04:56:58;;;;;;;16.00;11.97;;;;;;;;;;5094697;28;20639;-77
2022/03/14 04:59:26;;;;;;;14.87;11.90;;;;;;;;;;5095616;28;20312;-77
2022/03/14 05:01:55;;;;;;;13.60;11.20;;;;;;;;;;5090811;28;20719;-76
2022/03/14 05:04:23;;;;;;;15.10;11.87;;;;;;;;;;5084865;28;20229;-76
2022/03/14 05:06:52;;;;;;;14.13;11.63;;;;;;;;;;5091680;28;20241;-76
2022/03/14 05:09:21;;;;;;;16.17;11.77;;;;;;;;;;5078677;28;20217;-76
2022/03/14 05:11:50;;;;;;;14.03;11.63;;;;;;;;;;5094723;28;20204;-76
2022/03/14 05:14:18;;;;;;;15.80;13.07;;;;;;;;;;5082330;28;20209;-76
2022/03/14 05:16:47;;;;;;;14.43;12.43;;;;;;;;;;5093854;28;20231;-76
2022/03/14 05:19:16;;;;;;;17.17;13.23;;;;;;;;;;5094698;28;20287;-76
2022/03/14 05:21:44;;;;;;;16.07;12.40;;;;;;;;;;5094648;28;20651;-76
2022/03/14 05:24:13;;;;;;;16.03;12.97;;;;;;;;;;5094147;28;20604;-76
2022/03/14 05:26:43;;;;;;;15.97;13.03;;;;;;;;;;5094512;28;20225;-75
2022/03/14 05:29:14;;;;;;;14.03;12.60;;;;;;;;;;5094255;28;20561;-77
2022/03/14 05:31:43;;;;;;;13.97;12.40;;;;;;;;;;5094279;28;20249;-76
2022/03/14 05:34:12;;;;;;;14.63;12.87;;;;;;;;;;5093902;28;20207;-76
2022/03/14 05:36:40;;;;;;;15.23;12.53;;;;;;;;;;5094404;28;20241;-76
2022/03/14 05:39:09;;;;;;;16.07;12.90;;;;;;;;;;5094541;28;20212;-76
2022/03/14 05:41:37;;;;;;;15.67;13.10;;;;;;;;;;5093779;28;20200;-76
2022/03/14 05:44:07;;;;;;;13.97;12.40;;;;;;;;;;5094119;28;20200;-76
2022/03/14 05:46:36;;;;;;;16.93;14.10;;;;;;;;;;5087089;28;20287;-76
2022/03/14 05:49:05;;;;;;;17.30;13.53;;;;;;;;;;5086721;28;20287;-76
2022/03/14 05:51:36;;;;;;;16.37;13.60;;;;;;;;;;5094230;28;20205;-76
2022/03/14 05:54:05;;;;;;;15.57;13.53;;;;;;;;;;5094325;28;20204;-76
2022/03/14 05:56:33;;;;;;;15.07;13.50;;;;;;;;;;5093771;28;20605;-76
2022/03/14 05:59:02;;;;;;;15.50;13.87;;;;;;;;;;5093142;28;20201;-76
2022/03/14 06:01:32;;;;;;;16.43;13.60;;;;;;;;;;5093846;28;20204;-77
2022/03/14 06:04:13;;;;;;;14.77;13.27;;;;;;;;;;5093979;28;20224;-76
2022/03/14 06:06:42;;;;;;;15.90;13.53;;;;;;;;;;5092177;28;20270;-76
2022/03/14 06:09:10;;;;;;;17.00;14.47;;;;;;;;;;5092648;28;20568;-77
2022/03/14 06:11:39;;;;;;;19.10;13.33;;;;;;;;;;5093667;28;20201;-76
2022/03/14 06:14:08;;;;;;;17.63;14.87;;;;;;;;;;5093383;28;20602;-77
2022/03/14 06:16:38;;;;;;;17.10;15.07;;;;;;;;;;5091652;28;20227;-77
2022/03/14 06:19:08;;;;;;;17.77;14.87;;;;;;;;;;5094811;28;20568;-77
2022/03/14 06:21:38;;;;;;;16.10;14.40;;;;;;;;;;5094589;28;20199;-77
2022/03/14 06:24:08;;;;;;;18.07;15.93;;;;;;;;;;5094281;28;20561;-77
2022/03/14 06:26:37;;;;;;;18.27;14.90;;;;;;;;;;5074452;28;20233;-78
2022/03/14 06:29:05;;;;;;;16.70;14.90;;;;;;;;;;5075202;28;20198;-77
2022/03/14 06:31:34;;;;;;;15.80;14.10;;;;;;;;;;5080675;28;20198;-77
2022/03/14 06:34:04;;;;;;;18.30;14.53;;;;;;;;;;5095476;28;20204;-77
2022/03/14 06:36:33;;;;;;;16.77;14.13;;;;;;;;;;5094110;28;20275;-77
2022/03/14 06:39:02;;;;;;;17.57;14.47;;;;;;;;;;5093451;28;20211;-78
2022/03/14 06:41:38;;;;;;;18.20;14.03;;;;;;;;;;5087088;28;20220;-77
2022/03/14 06:44:07;;;;;;;18.47;14.53;;;;;;;;;;5093613;28;20648;-77
2022/03/14 06:46:35;;;;;;;19.13;14.37;;;;;;;;;;5092720;28;20229;-77
2022/03/14 06:49:06;;;;;;;19.20;15.50;;;;;;;;;;5092592;28;20218;-77
2022/03/14 06:51:37;;;;;;;17.23;15.10;;;;;;;;;;5094334;28;20200;-77
2022/03/14 06:54:05;;;;;;;17.53;14.90;;;;;;;;;;5074614;28;20200;-77
2022/03/14 06:56:34;;;;;;;18.47;16.10;;;;;;;;;;5074922;28;20225;-76
2022/03/14 06:59:02;;;;;;;18.00;15.50;;;;;;;;;;5074471;28;20206;-77
2022/03/14 07:01:31;;;;;;;19.27;16.73;;;;;;;;;;5073616;28;20210;-77
2022/03/14 07:04:02;;;;;;;20.87;17.00;;;;;;;;;;5073765;28;20681;-77
2022/03/14 07:06:31;;;;;;;20.57;16.33;;;;;;;;;;5074928;28;20230;-77
2022/03/14 07:09:00;;;;;;;20.90;17.83;;;;;;;;;;5078575;28;20205;-77
2022/03/14 07:11:28;;;;;;;21.97;18.57;;;;;;;;;;5082747;28;20190;-78
2022/03/14 07:13:57;;;;;;;26.07;20.03;;;;;;;;;;5084750;28;20612;-78
2022/03/14 07:16:25;;;;;;;27.33;20.77;;;;;;;;;;5082418;28;20241;-78
2022/03/14 07:18:54;;;;;;;25.40;21.93;;;;;;;;;;5081927;28;20280;-77
2022/03/14 07:21:28;;;;;;;32.20;22.87;;;;;;;;;;5098838;28;20229;-77
2022/03/14 07:23:58;;;;;;;30.10;22.77;;;;;;;;;;5098363;28;20186;-77
2022/03/14 07:26:26;;;;;;;27.23;22.73;;;;;;;;;;5097430;28;20750;-77
2022/03/14 07:28:54;;;;;;;30.47;23.17;;;;;;;;;;5097005;28;20247;-77
2022/03/14 07:31:23;;;;;;;32.63;23.97;;;;;;;;;;5096871;28;20246;-77
2022/03/14 07:33:52;;;;;;;30.23;24.37;;;;;;;;;;5097257;28;20202;-77
2022/03/14 07:36:20;;;;;;;30.17;24.47;;;;;;;;;;5097007;28;20229;-78
2022/03/14 07:38:49;;;;;;;32.10;24.57;;;;;;;;;;5097114;28;20641;-77
2022/03/14 07:41:19;;;;;;;33.33;25.90;;;;;;;;;;5097270;28;20212;-77
2022/03/14 07:43:47;;;;;;;30.73;24.67;;;;;;;;;;5097169;28;20231;-76
2022/03/14 07:46:16;;;;;;;35.10;26.13;;;;;;;;;;5096536;28;20611;-76
2022/03/14 07:48:44;;;;;;;33.37;26.13;;;;;;;;;;5096479;28;20205;-77
2022/03/14 07:51:13;;;;;;;33.33;27.23;;;;;;;;;;5096584;28;20714;-76
2022/03/14 07:53:41;;;;;;;34.30;26.27;;;;;;;;;;5096338;28;20198;-76
2022/03/14 07:56:11;;;;;;;36.17;27.00;;;;;;;;;;5096461;28;20283;-76
2022/03/14 07:58:41;;;;;;;33.57;26.73;;;;;;;;;;5096236;28;20205;-77
2022/03/14 08:01:10;;;;;;;36.87;27.60;;;;;;;;;;5096258;28;20657;-76
2022/03/14 08:03:38;;;;;;;36.67;28.23;;;;;;;;;;5096225;28;20209;-76
2022/03/14 08:06:11;;;;;;;36.17;27.70;;;;;;;;;;5096281;28;20209;-76
2022/03/14 08:08:40;;;;;;;33.87;26.60;;;;;;;;;;5095501;28;20217;-75
2022/03/14 08:11:08;;;;;;;33.00;26.40;;;;;;;;;;5095548;28;20230;-75
2022/03/14 08:13:37;;;;;;;36.70;27.67;;;;;;;;;;5095909;28;20205;-76
2022/03/14 08:16:07;;;;;;;34.57;25.73;;;;;;;;;;5095810;28;20206;-75
2022/03/14 08:18:38;;;;;;;31.50;24.37;;;;;;;;;;5096012;28;20197;-76
2022/03/14 08:21:06;;;;;;;30.73;23.40;;;;;;;;;;5095947;28;20224;-76
2022/03/14 08:23:36;;;;;;;27.20;20.67;;;;;;;;;;5094792;28;20278;-75
2022/03/14 08:26:06;;;;;;;26.93;21.17;;;;;;;;;;5095567;28;20197;-76
2022/03/14 08:28:34;;;;;;;25.33;20.07;;;;;;;;;;5095588;28;20275;-75
2022/03/14 08:31:03;;;;;;;27.07;20.00;;;;;;;;;;5095635;28;20212;-76
2022/03/14 08:33:34;;;;;;;25.63;20.70;;;;;;;;;;5095799;28;20209;-75
2022/03/14 08:36:04;;;;;;;28.10;21.10;;;;;;;;;;5095175;28;20202;-75
2022/03/14 08:38:33;;;;;;;28.27;21.73;;;;;;;;;;5095523;28;20193;-75
2022/03/14 08:41:01;;;;;;;27.73;21.63;;;;;;;;;;5084289;28;20634;-74
2022/03/14 08:43:30;;;;;;;24.77;20.53;;;;;;;;;;5075089;28;20213;-75
2022/03/14 08:45:58;;;;;;;27.03;21.23;;;;;;;;;;5093424;28;20201;-76
2022/03/14 08:48:27;;;;;;;24.43;20.17;;;;;;;;;;5095479;28;20218;-75
2022/03/14 08:50:56;;;;;;;24.20;18.80;;;;;;;;;;5095334;28;20657;-76
2022/03/14 08:53:25;;;;;;;24.37;18.83;;;;;;;;;;5094893;28;20251;-75
2022/03/14 08:55:55;;;;;;;24.23;19.40;;;;;;;;;;5094758;28;20656;-75
2022/03/14 08:58:26;;;;;;;21.90;18.70;;;;;;;;;;5095185;28;20229;-76
2022/03/14 09:00:55;;;;;;;24.97;19.70;;;;;;;;;;5095048;28;20197;-75
2022/03/14 09:03:23;;;;;;;23.20;19.50;;;;;;;;;;5094806;28;20206;-76
2022/03/14 09:05:52;;;;;;;23.57;17.53;;;;;;;;;;5094470;28;20204;-76
2022/03/14 09:08:23;;;;;;;20.70;17.10;;;;;;;;;;5095037;28;20229;-76
2022/03/14 09:10:51;;;;;;;19.70;15.80;;;;;;;;;;5094553;28;20689;-76
2022/03/14 09:13:20;;;;;;;19.00;15.77;;;;;;;;;;5094376;28;20653;-75
2022/03/14 09:15:49;;;;;;;20.37;16.10;;;;;;;;;;5094232;28;20194;-75
2022/03/14 09:18:17;;;;;;;21.93;17.00;;;;;;;;;;5094455;28;20201;-77
2022/03/14 09:20:47;;;;;;;19.03;15.23;;;;;;;;;;5094419;28;20202;-76
2022/03/14 09:23:20;;;;;;;15.97;13.37;;;;;;;;;;5094482;28;20247;-76
2022/03/14 09:25:50;;;;;;;18.27;14.67;;;;;;;;;;5094318;28;20201;-75
2022/03/14 09:28:20;;;;;;;16.40;14.40;;;;;;;;;;5094656;28;20229;-76
2022/03/14 09:30:48;;;;;;;18.97;14.87;;;;;;;;;;5094520;28;20209;-76
2022/03/14 09:33:17;;;;;;;20.00;15.83;;;;;;;;;;5094000;28;20256;-76
2022/03/14 09:35:45;;;;;;;16.77;14.47;;;;;;;;;;5094244;28;20688;-75
2022/03/14 09:38:15;;;;;;;16.53;13.33;;;;;;;;;;5094316;28;20226;-75
2022/03/14 09:40:44;;;;;;;17.37;14.60;;;;;;;;;;5093961;28;20260;-75
2022/03/14 09:43:16;;;;;;;16.90;13.03;;;;;;;;;;5093804;28;20198;-75
2022/03/14 09:45:46;;;;;;;13.87;12.13;;;;;;;;;;5093469;28;20574;-76
2022/03/14 09:48:15;;;;;;;13.83;11.40;;;;;;;;;;5093905;28;20614;-75
2022/03/14 09:50:45;;;;;;;12.00;10.47;;;;;;;;;;5093906;28;20202;-76
2022/03/14 09:53:14;;;;;;;12.67;11.30;;;;;;;;;;5094061;28;20217;-75
2022/03/14 09:55:46;;;;;;;12.63;11.07;;;;;;;;;;5093784;28;20679;-76
2022/03/14 09:58:17;;;;;;;13.67;11.33;;;;;;;;;;5093990;28;20202;-75
2022/03/14 10:00:46;;;;;;;13.23;11.27;;;;;;;;;;5093635;28;20251;-76
2022/03/14 10:03:21;;;;;;;12.93;10.40;;;;;;;;;;5093562;28;20833;-76
2022/03/14 10:05:49;;;;;;;12.03;10.07;;;;;;;;;;5093428;28;20590;-76
2022/03/14 10:08:18;;;;;;;13.23;11.30;;;;;;;;;;5093676;28;20227;-76
2022/03/14 10:10:47;;;;;;;12.27;10.53;;;;;;;;;;5084372;28;20218;-76
2022/03/14 10:13:38;;;;;;;11.40;9.97;;;;;;;;;;5073131;28;20245;-75
2022/03/14 10:16:06;;;;;;;13.43;10.50;;;;;;;;;;5086911;28;20201;-76
2022/03/14 10:18:37;;;;;;;12.07;10.50;;;;;;;;;;5093606;28;20197;-75
2022/03/14 10:21:06;;;;;;;12.97;10.67;;;;;;;;;;5093601;28;20206;-76
2022/03/14 10:23:37;;;;;;;12.23;9.63;;;;;;;;;;5093601;28;20577;-75
2022/03/14 10:26:06;;;;;;;13.43;11.03;;;;;;;;;;5093091;28;20231;-76
2022/03/14 10:28:38;;;;;;;13.27;10.87;;;;;;;;;;5093291;28;20218;-77
2022/03/14 10:31:32;;;;;;;13.00;11.07;;;;;;;;;;5093453;28;20255;-76
2022/03/14 10:34:04;;;;;;;12.83;11.03;;;;;;;;;;5093576;28;20246;-75
2022/03/14 10:36:42;;;;;;;12.63;11.33;;;;;;;;;;5093218;28;20220;-76
2022/03/14 10:39:21;;;;;;;12.37;11.07;;;;;;;;;;5093841;28;20206;-75
2022/03/14 10:42:02;;;;;;;13.53;11.80;;;;;;;;;;5093666;28;20252;-76
2022/03/14 10:44:46;;;;;;;14.07;12.10;;;;;;;;;;5088516;28;20657;-75
2022/03/14 10:47:16;;;;;;;13.67;11.97;;;;;;;;;;5090777;28;20222;-75
2022/03/14 10:49:45;;;;;;;13.07;11.43;;;;;;;;;;5097605;28;20573;-76
2022/03/14 10:52:17;;;;;;;11.50;10.37;;;;;;;;;;5097428;28;20675;-75
2022/03/14 10:54:46;;;;;;;10.10;9.10;;;;;;;;;;5097371;28;20296;-76
2022/03/14 10:57:15;;;;;;;10.63;8.87;;;;;;;;;;5086661;28;20249;-74
2022/03/14 10:59:45;;;;;;;9.60;8.63;;;;;;;;;;5095685;28;20537;-73
2022/03/14 11:02:17;;;;;;;10.53;7.80;;;;;;;;;;5096981;28;20337;-72
2022/03/14 11:04:47;;;;;;;8.27;7.37;;;;;;;;;;5096840;28;20205;-75
2022/03/14 11:07:16;;;;;;;7.50;6.70;;;;;;;;;;5096624;28;20222;-74
2022/03/14 11:09:46;;;;;;;6.60;5.87;;;;;;;;;;5097000;28;20631;-73
2022/03/14 11:12:15;;;;;;;6.93;5.97;;;;;;;;;;5097264;28;20201;-73
2022/03/14 11:14:44;;;;;;;9.17;6.37;;;;;;;;;;5097145;28;20209;-73
2022/03/14 11:17:15;;;;;;;7.80;6.63;;;;;;;;;;5096722;28;20271;-74
2022/03/14 11:19:44;;;;;;;7.80;6.43;;;;;;;;;;5097257;28;20201;-77
2022/03/14 11:22:15;;;;;;;7.93;7.13;;;;;;;;;;5097123;28;20334;-73
2022/03/14 11:24:45;;;;;;;10.37;8.17;;;;;;;;;;5096950;28;20205;-76
2022/03/14 11:27:21;;;;;;;9.33;8.33;;;;;;;;;;5096808;28;20225;-74
2022/03/14 11:29:50;;;;;;;9.43;8.17;;;;;;;;;;5096690;28;20679;-74
2022/03/14 11:32:19;;;;;;;10.73;9.63;;;;;;;;;;5096537;28;20614;-75
2022/03/14 11:35:02;;;;;;;11.50;9.90;;;;;;;;;;5096746;28;20211;-73
2022/03/14 11:37:33;;;;;;;11.50;10.30;;;;;;;;;;5096600;28;20220;-75
2022/03/14 11:40:02;;;;;;;11.83;10.63;;;;;;;;;;5096348;28;20193;-76
2022/03/14 11:42:31;;;;;;;12.77;11.07;;;;;;;;;;5096563;28;20198;-74
2022/03/14 11:45:06;;;;;;;12.60;11.30;;;;;;;;;;5096328;28;20656;-75
2022/03/14 11:47:34;;;;;;;14.27;11.73;;;;;;;;;;5096535;28;20538;-76
2022/03/14 11:50:04;;;;;;;11.53;10.33;;;;;;;;;;5096130;28;20218;-75
2022/03/14 11:52:38;;;;;;;13.13;11.83;;;;;;;;;;5096356;28;20595;-77
2022/03/14 11:55:16;;;;;;;13.47;12.07;;;;;;;;;;5096392;28;20206;-74
2022/03/14 11:57:45;;;;;;;15.43;12.33;;;;;;;;;;5096202;28;20221;-73
2022/03/14 12:00:33;;;;;;;14.57;12.97;;;;;;;;;;5096446;28;20198;-75
2022/03/14 12:03:03;;;;;;;13.47;12.07;;;;;;;;;;5096265;28;20294;-75
2022/03/14 12:05:48;;;;;;;14.20;12.60;;;;;;;;;;5095945;28;20205;-78
2022/03/14 12:08:34;;;;;;;15.50;13.90;;;;;;;;;;5096311;28;20201;-77
2022/03/14 12:11:17;;;;;;;15.23;13.53;;;;;;;;;;5095914;28;20210;-76
2022/03/14 12:13:48;;;;;;;14.80;13.10;;;;;;;;;;5095848;28;20544;-76
2022/03/14 12:16:32;;;;;;;14.53;13.03;;;;;;;;;;5096035;28;20227;-77
2022/03/14 12:19:00;;;;;;;14.33;12.93;;;;;;;;;;5095682;28;20202;-76
2022/03/14 12:21:52;;;;;;;15.03;13.63;;;;;;;;;;5095937;28;20734;-77
2022/03/14 12:24:21;;;;;;;15.30;13.27;;;;;;;;;;5095915;28;20305;-76
2022/03/14 12:26:52;;;;;;;14.90;13.40;;;;;;;;;;5095816;28;20267;-76
2022/03/14 12:29:37;;;;;;;14.77;13.27;;;;;;;;;;5095700;28;20225;-76
2022/03/14 12:32:24;;;;;;;15.97;14.27;;;;;;;;;;5095800;28;20599;-78
2022/03/14 12:35:04;;;;;;;15.47;13.90;;;;;;;;;;5095755;28;20255;-77
2022/03/14 12:37:39;;;;;;;15.90;13.93;;;;;;;;;;5095618;28;20217;-77
2022/03/14 12:40:08;;;;;;;15.00;13.53;;;;;;;;;;5091777;28;20213;-77
2022/03/14 12:42:40;;;;;;;15.10;13.50;;;;;;;;;;5075493;28;20202;-77
2022/03/14 12:45:20;;;;;;;13.97;12.57;;;;;;;;;;5075186;28;20209;-77
2022/03/14 12:47:53;;;;;;;15.37;12.97;;;;;;;;;;5084083;28;20217;-77
2022/03/14 12:50:40;;;;;;;15.77;14.17;;;;;;;;;;5095283;28;20262;-77
2022/03/14 12:53:08;;;;;;;15.67;14.07;;;;;;;;;;5095234;28;20201;-76
2022/03/14 12:55:37;;;;;;;15.77;14.17;;;;;;;;;;5095234;28;20202;-77
2022/03/14 12:58:06;;;;;;;16.10;13.10;;;;;;;;;;5094999;28;20226;-76
2022/03/14 13:00:40;;;;;;;16.13;14.43;;;;;;;;;;5094995;28;20731;-77
2022/03/14 13:03:24;;;;;;;14.33;12.73;;;;;;;;;;5094232;28;20186;-76
2022/03/14 13:05:52;;;;;;;14.17;12.77;;;;;;;;;;5090698;28;20248;-76
2022/03/14 13:08:21;;;;;;;18.67;16.13;;;;;;;;;;5094424;28;20194;-76
2022/03/14 13:10:51;;;;;;;15.63;12.80;;;;;;;;;;5084450;28;20222;-77
2022/03/14 13:13:24;;;;;;;14.93;12.97;;;;;;;;;;5083624;28;20202;-77
2022/03/14 13:16:04;;;;;;;16.33;14.03;;;;;;;;;;5090696;28;20193;-76
2022/03/14 13:18:34;;;;;;;19.27;16.50;;;;;;;;;;5091640;28;20626;-77
2022/03/14 13:21:03;;;;;;;17.97;15.17;;;;;;;;;;5094685;28;20193;-77
2022/03/14 13:23:33;;;;;;;17.70;14.10;;;;;;;;;;5084663;28;20206;-76
2022/03/14 13:26:03;;;;;;;14.90;12.73;;;;;;;;;;5092921;28;20285;-78
2022/03/14 13:28:33;;;;;;;15.47;12.63;;;;;;;;;;5088774;28;20201;-76
2022/03/14 13:31:02;;;;;;;15.40;13.57;;;;;;;;;;5094619;28;20271;-76
2022/03/14 13:33:33;;;;;;;15.03;13.40;;;;;;;;;;5087536;28;20262;-76
2022/03/14 13:36:02;;;;;;;15.63;13.50;;;;;;;;;;5091930;28;20200;-76
2022/03/14 13:38:33;;;;;;;13.20;11.53;;;;;;;;;;5094473;28;20228;-76
2022/03/14 13:41:03;;;;;;;19.87;13.70;;;;;;;;;;5094354;28;20194;-76
2022/03/14 13:43:36;;;;;;;12.90;11.50;;;;;;;;;;5094640;28;20380;-76
2022/03/14 13:46:24;;;;;;;13.93;11.50;;;;;;;;;;5093997;28;20209;-78
2022/03/14 13:48:58;;;;;;;10.93;8.70;;;;;;;;;;5094764;28;20194;-76
2022/03/14 13:51:27;;;;;;;13.00;9.90;;;;;;;;;;5095249;28;20251;-78
2022/03/14 13:53:55;;;;;;;12.40;9.40;;;;;;;;;;5101727;28;20609;-78
2022/03/14 13:56:24;;;;;;;14.87;10.03;;;;;;;;;;5100306;28;20247;-78
2022/03/14 13:59:09;;;;;;;12.60;10.20;;;;;;;;;;5102479;28;20258;-78
2022/03/14 14:01:42;;;;;;;13.88;9.65;;;;;;;;;;4736317;28;10000361;-78
2022/03/14 14:04:16;;;;;;;13.53;9.80;;;;;;;;;;5082172;28;20203;-78
2022/03/14 14:06:45;;;;;;;13.53;9.33;;;;;;;;;;5102042;28;20215;-77
2022/03/14 14:09:21;;;;;;;12.50;8.97;;;;;;;;;;5101273;28;20208;-78
2022/03/14 14:12:05;;;;;;;15.00;10.97;;;;;;;;;;5103199;28;20228;-78
2022/03/14 14:14:34;;;;;;;15.03;11.43;;;;;;;;;;5099976;28;20203;-78
2022/03/14 14:17:09;;;;;;;16.23;10.20;;;;;;;;;;5103198;28;20222;-79
2022/03/14 14:20:00;;;;;;;14.70;10.67;;;;;;;;;;5102813;28;20204;-79
2022/03/14 14:22:29;;;;;;;16.83;11.60;;;;;;;;;;5103400;28;20194;-78
2022/03/14 14:24:57;;;;;;;12.43;9.73;;;;;;;;;;5102724;28;20205;-79
2022/03/14 14:27:27;;;;;;;11.67;8.87;;;;;;;;;;5104268;28;20217;-80
2022/03/14 14:29:57;;;;;;;13.37;9.87;;;;;;;;;;5104257;28;20201;-78
2022/03/14 14:32:25;;;;;;;14.00;9.33;;;;;;;;;;5103748;28;20205;-80
2022/03/14 14:34:57;;;;;;;12.97;9.03;;;;;;;;;;5104176;28;20201;-79
2022/03/14 14:37:26;;;;;;;14.47;9.37;;;;;;;;;;5103754;28;20232;-79
2022/03/14 14:39:55;;;;;;;10.40;9.17;;;;;;;;;;5103439;28;20627;-80
2022/03/14 14:42:23;;;;;;;11.63;8.87;;;;;;;;;;5103392;28;20209;-79
2022/03/14 14:44:57;;;;;;;13.40;10.53;;;;;;;;;;5104405;28;20200;-78
2022/03/14 14:47:26;;;;;;;11.87;8.57;;;;;;;;;;5102990;28;20229;-78
2022/03/14 14:49:56;;;;;;;16.90;11.27;;;;;;;;;;5103403;28;20632;-79
2022/03/14 14:52:31;;;;;;;14.30;10.77;;;;;;;;;;5104720;28;20217;-78
2022/03/14 14:55:03;;;;;;;14.23;10.93;;;;;;;;;;5104462;28;20204;-78